Nearby METAR Reports


Data Updates Approximately Every Four Hours

METAR is the international standard code format for hourly surface weather observations which is analogous to the SA coding currently used in the US. The acronym roughly translates from French as Aviation Routine Weather Report. SPECI is merely the code name given to METAR formatted products which are issued on a special non-routine basis as dictated by changing meteorological conditions. The SPECI acronym roughly translates as Aviation Selected Special Weather Report.

KSLH - Cheboygan, Michigan, USA
Distance from station: W 9mi, 14km
Updated: 12/04/2021 6:15pm
Overcast
Overcast
 Wind from W
Wind: W 15 mph , 24 km/h, Gust: 22 mph , 35 km/h
Temperature: 30°F , -1°C
Wind Chill: 19°F , -7°C
Dew Point: 19°F , -7°C
Humidity: 64%
Barometer: 30.13 inHg , 1020.3 hPa
Clouds: Overcast
Visibility: 10 miles , 16 km
Cloud details: Mostly cloudy 3800 ft
Mostly cloudy 4900 ft
Overcast 6000 ft
2021/12/04 23:15 KSLH 042315Z AUTO 28013G19KT 10SM BKN038 BKN049 OVC060 M01/M07 A3013 RMK AO2
KMCD - Mackinac Island, Michigan, USA
Distance from station: NW 19mi, 31km
Updated: 12/04/2021 6:15pm
Partly cloudy
Partly cloudy
 Wind from WNW
Wind: WNW 20 mph , 31 km/h, Gust: 28 mph , 44 km/h
Temperature: 28°F , -2°C
Wind Chill: 15°F , -9°C
Dew Point: 18°F , -8°C
Humidity: 64%
Barometer: 30.14 inHg , 1020.7 hPa
Clouds: Partly cloudy
Visibility: 10 miles , 16 km
Cloud details: Partly cloudy 3200 ft
Partly cloudy 3900 ft
2021/12/04 23:15 KMCD 042315Z AUTO 29017G24KT 10SM SCT032 SCT039 M02/M08 A3014 RMK AO2 T10201076
 
KPLN - Pellston, Michigan, USA
Distance from station: WSW 24mi, 38km
Updated: 12/04/2021 5:54pm
Overcast
Overcast
 Wind from WNW
Wind: WNW 18 mph , 30 km/h, Gust: 35 mph , 56 km/h
Temperature: 30°F , -1°C
Wind Chill: 18°F , -8°C
Dew Point: 16°F , -9°C
Humidity: 55%
Barometer: 30.15 inHg , 1021 hPa
Clouds: Overcast
Visibility: 10 miles , 16 km
Cloud details: Few Clouds 4600 ft
Overcast 6000 ft
2021/12/04 22:54 KPLN 042254Z AUTO 29016G30KT 10SM FEW046 OVC060 M01/M09 A3015 RMK AO2 PK WND 29031/2226 SLP219 T10111094 $
KPZQ - Rogers City, Michigan, USA
Distance from station: SE 31mi, 50km
Updated: 12/04/2021 6:15pm
Overcast
Overcast
 Wind from WNW
Wind: WNW 7 mph , 11 km/h
Temperature: 28°F , -2°C
Wind Chill: 21°F , -6°C
Dew Point: 25°F , -4°C
Humidity: 86%
Barometer: 30.14 inHg , 1020.7 hPa
Clouds: Overcast
Visibility: 10 miles , 16 km
Cloud details: Partly cloudy 4300 ft
Overcast 6500 ft
2021/12/04 23:15 KPZQ 042315Z AUTO 29006KT 10SM SCT043 OVC065 M02/M04 A3014 RMK AO2 T10161036
 
KMGN - Harbor Springs, Michigan, USA
Distance from station: WSW 32mi, 52km
Updated: 12/04/2021 6:15pm
Overcast
Overcast
 Wind from WNW
Wind: WNW 15 mph , 24 km/h, Gust: 23 mph , 37 km/h
Temperature: 30°F , -1°C
Wind Chill: 19°F , -7°C
Dew Point: 18°F , -8°C
Humidity: 59%
Barometer: 30.16 inHg , 1021.3 hPa
Clouds: Overcast
Visibility: 10 miles , 16 km
Cloud details: Partly cloudy 4000 ft
Partly cloudy 4600 ft
Overcast 6000 ft
2021/12/04 23:15 KMGN 042315Z AUTO 29013G20KT 10SM SCT040 SCT046 OVC060 M01/M08 A3016 RMK AO2 T10071088
KDRM - Drummond Is, Michigan, USA
Distance from station: NE 36mi, 59km
Updated: 12/04/2021 6:15pm
Overcast
Overcast
 Wind from WNW
Wind: WNW 12 mph , 19 km/h, Gust: 16 mph , 26 km/h
Temperature: 30°F , -1°C
Wind Chill: 20°F , -7°C
Dew Point: 23°F , -5°C
Humidity: 75%
Barometer: 30.11 inHg , 1019.6 hPa
Clouds: Overcast
Visibility: 10 miles , 16 km
Cloud details: Mostly cloudy 2000 ft
Mostly cloudy 3700 ft
Overcast 6000 ft
2021/12/04 23:15 KDRM 042315Z AUTO 29010G14KT 240V300 10SM BKN020 BKN037 OVC060 M01/M05 A3011 RMK AO2 T10121046
 
KCIU - Chippewa Intl, Michigan, USA
Distance from station: N 41mi, 66km
Updated: 12/04/2021 6:24pm
Light snow, Mist, Overcast
Light snow, Mist, Overcast
 Wind from W
Wind: W 13 mph , 20 km/h
Temperature: 25°F , -4°C
Wind Chill: 13°F , -11°C
Dew Point: 25°F , -4°C
Humidity: 100%
Barometer: 30.12 inHg , 1020 hPa
Summary: Light snow, Mist
Clouds: Overcast
Visibility: 3 miles , 5 km
Cloud details: Partly cloudy 800 ft
Mostly cloudy 2000 ft
Overcast 6500 ft
2021/12/04 23:24 KCIU 042324Z AUTO 28011KT 3SM -SN BR SCT008 BKN020 OVC065 M04/M04 A3012 RMK AO2 CIG 014V026 P0000 FZRANO
KGLR - Gaylord, Michigan, USA
Distance from station: SSW 48mi, 77km
Updated: 12/04/2021 6:14pm
Mostly cloudy
Mostly cloudy
 Wind from W
Wind: W 7 mph , 11 km/h
Temperature: 27°F , -3°C
Wind Chill: 19°F , -7°C
Dew Point: 21°F , -6°C
Humidity: 80%
Barometer: 30.12 inHg , 1020 hPa
Clouds: Mostly cloudy
Visibility: 9 miles , 14 km
Cloud details: Partly cloudy 1700 ft
Partly cloudy 3500 ft
Mostly cloudy 5500 ft
2021/12/04 23:14 KGLR 042314Z AUTO 27006KT 9SM SCT017 SCT035 BKN055 M03/M06 A3012 RMK AO2 SNE10 P0000 T10281056
 
KCVX - Charlevoix, Michigan, USA
Distance from station: WSW 52mi, 83km
Updated: 12/04/2021 6:15pm
Overcast
Overcast
 Wind from WNW
Wind: WNW 15 mph , 24 km/h, Gust: 21 mph , 33 km/h
Temperature: 32°F , 0°C
Wind Chill: 22°F , -6°C
Dew Point: 19°F , -7°C
Humidity: 60%
Barometer: 30.16 inHg , 1021.3 hPa
Clouds: Overcast
Visibility: 10 miles , 16 km
Cloud details: Partly cloudy 3200 ft
Mostly cloudy 5000 ft
Overcast 6500 ft
2021/12/04 23:15 KCVX 042315Z AUTO 30013G18KT 10SM SCT032 BKN050 OVC065 00/M07 A3016 RMK AO2 T00001066
KANJ - Sault Ste Marie, Michigan, USA
Distance from station: N 56mi, 89km
Updated: 12/04/2021 6:24pm
Light snow, Overcast
Light snow, Overcast
 Wind from W
Wind: W 10 mph , 17 km/h, Gust: 25 mph , 41 km/h
Temperature: 28°F , -2°C
Wind Chill: 19°F , -7°C
Dew Point: 21°F , -6°C
Humidity: 74%
Barometer: 30.10 inHg , 1019.3 hPa
Summary: Light Snow
Clouds: Overcast
Visibility: 1 1/2 miles , 2.4 km
Cloud details: Few Clouds 1700 ft
Mostly cloudy 2400 ft
Overcast 4000 ft
2021/12/04 23:24 KANJ 042324Z AUTO 28009G22KT 1 1/2SM -SN FEW017 BKN024 OVC040 M02/M06 A3010 RMK AO2 P0001 T10221061
 
KAPN - Alpena, Michigan, USA
Distance from station: SE 56mi, 89km
Updated: 12/04/2021 5:54pm
Overcast
Overcast
 Wind from WSW
Wind: WSW 8 mph , 13 km/h
Temperature: 30°F , -1°C
Wind Chill: 22°F , -6°C
Dew Point: 25°F , -4°C
Humidity: 80%
Barometer: 30.13 inHg , 1020.3 hPa
Clouds: Overcast
Visibility: 10 miles , 16 km
Cloud details: Overcast 6000 ft
2021/12/04 22:54 KAPN 042254Z AUTO 25007KT 10SM OVC060 M01/M04 A3013 RMK AO2 SLP212 T10111039
CYAM - Sault Ste Marie, Ontario, Canada
Distance from station: N 56mi, 90km
Updated: 12/04/2021 6:03pm
Light snow, Showers, Small hail, Blowing, Snow, Overcast
Light snow, Showers, Small hail, Blowing, Snow, Overcast
 Wind from WNW
Wind: WNW 17 mph , 28 km/h, Gust: 31 mph , 50 km/h
Temperature: 27°F , -3°C
Wind Chill: 14°F , -10°C
Dew Point: 25°F , -4°C
Humidity: 93%
Barometer: 30.10 inHg , 1019.3 hPa
Summary: Light snow, Showers, Small hail, Blowing, Snow
Clouds: Overcast
Visibility: 1 1/2 miles , 2.4 km
Cloud details: Mostly cloudy 700 ft
Mostly cloudy 1800 ft
Overcast 7000 ft
2021/12/04 23:03 CYAM 042303Z 29015G27KT 1 1/2SM R12/3000V4500FT/N -SHSNGS BLSN BKN007 BKN018TCU OVC070 M03/M04 A3010 RMK SN3CF2TCU2AC1 SLP205
 
KSJX - Beaver Island, Michigan, USA
Distance from station: W 60mi, 96km
Updated: 12/04/2021 6:15pm
Overcast
Overcast
 Wind from WNW
Wind: WNW 16 mph , 26 km/h, Gust: 25 mph , 41 km/h
Temperature: 32°F , 0°C
Wind Chill: 21°F , -6°C
Dew Point: 16°F , -9°C
Humidity: 51%
Barometer: 30.17 inHg , 1021.7 hPa
Clouds: Overcast
Visibility: 10 miles , 16 km
Cloud details: Partly cloudy 4900 ft
Overcast 6000 ft
2021/12/04 23:15 KSJX 042315Z AUTO 29014G22KT 10SM SCT049 OVC060 00/M09 A3017 RMK AO2 T10031093
KACB - Bellaire, Michigan, USA
Distance from station: SW 63mi, 102km
Updated: 12/04/2021 6:15pm
Overcast
Overcast
 Wind from W
Wind: W 7 mph , 11 km/h, Gust: 16 mph , 26 km/h
Temperature: 34°F , 1°C
Wind Chill: 28°F , -2°C
Dew Point: 16°F , -9°C
Humidity: 48%
Barometer: 30.18 inHg , 1022 hPa
Clouds: Overcast
Visibility: 10 miles , 16 km
Cloud details: Partly cloudy 4500 ft
Overcast 6000 ft
2021/12/04 23:15 KACB 042315Z AUTO 27006G14KT 10SM SCT045 OVC060 01/M09 A3018 RMK AO2 T00081087
 
CWNL - Great Duck Island, Ontario, Canada
Distance from station: E 66mi, 106km
Updated: 05/12/2021 9:00am
NOT Current

 Wind from NW
Wind: NW 7 mph , 11 km/h
Temperature: 41°F , 5°C
Wind Chill: 36°F , 2°C
Dew Point: 36°F , 2°C
Humidity: 81%
2021/05/12 13:00 CWNL 121300Z AUTO 32006KT 05/02 RMK AO1 SLP295 T00530023 51017
KERY - Newberry, Michigan, USA
Distance from station: NW 69mi, 112km
Updated: 12/04/2021 6:15pm
Light snow, Overcast
Light snow, Overcast
 Wind from W
Wind: W 12 mph , 19 km/h
Temperature: 25°F , -4°C
Wind Chill: 14°F , -10°C
Dew Point: 23°F , -5°C
Humidity: 93%
Barometer: 30.13 inHg , 1020.3 hPa
Summary: Light Snow
Clouds: Overcast
Visibility: 7 miles , 11 km
Cloud details: Mostly cloudy 2000 ft
Mostly cloudy 3000 ft
Overcast 3800 ft
2021/12/04 23:15 KERY 042315Z AUTO 26010KT 7SM -SN BKN020 BKN030 OVC038 M04/M05 A3013 RMK AO2 T10421055
 
KGOV - Grayling Af, Michigan, USA
Distance from station: SSW 70mi, 113km
Updated: 12/04/2021 5:58pm
Few Clouds
Few Clouds
 Wind from W
Wind: W 10 mph , 17 km/h
Temperature: 28°F , -2°C
Wind Chill: 19°F , -7°C
Dew Point: 18°F , -8°C
Humidity: 64%
Barometer: 30.13 inHg , 1020.3 hPa
Clouds: Few Clouds
Visibility: 10 miles , 16 km
Cloud details: Few Clouds 18000 ft
2021/12/04 22:58 KGOV 042258Z AUTO 28009KT 10SM FEW180 M02/M08 A3013 RMK AO2 SLP224 T10231079 $